Time;durP1;ratioP1;P1;durP2;ratioP2;P2;SDS_P1;SDS_P2;PMS_P1;PMS_P2;Temp;Humidity;BMP_temperature;BMP_pressure;BME280_temperature;BME280_humidity;BME280_pressure;Samples;Min_cycle;Max_cycle;Signal;HPM_P1;HPM_P2
2021/04/06 00:00:48;;;;;;;8.48;2.15;;;;;;;-1.38;89.59;100596.84;4980526;28;20038;-79
2021/04/06 00:03:19;;;;;;;11.93;2.42;;;;;;;-1.42;89.76;100603.88;5022596;28;20042;-79
2021/04/06 00:06:02;;;;;;;11.57;2.05;;;;;;;-1.51;89.92;100599.16;4997645;28;20125;-77
2021/04/06 00:08:35;;;;;;;11.32;2.30;;;;;;;-1.50;89.85;100588.00;5002848;28;20497;-81
2021/04/06 00:11:13;;;;;;;9.95;2.38;;;;;;;-1.43;90.48;100601.38;4978522;28;20054;-79
2021/04/06 00:13:40;;;;;;;7.72;2.03;;;;;;;-1.54;90.28;100589.03;4989679;28;20066;-80
2021/04/06 00:16:12;;;;;;;9.15;1.90;;;;;;;-1.43;90.21;100611.66;5007350;28;20093;-82
2021/04/06 00:18:39;;;;;;;12.07;2.33;;;;;;;-1.51;89.94;100586.31;4995404;28;20045;-81
2021/04/06 00:21:07;;;;;;;9.65;1.77;;;;;;;-1.52;90.33;100587.22;5009184;28;20041;-80
2021/04/06 00:23:33;;;;;;;11.80;2.63;;;;;;;-1.44;90.42;100592.00;4996295;28;20034;-79
2021/04/06 00:25:59;;;;;;;5.25;1.80;;;;;;;-1.44;89.93;100586.88;5016273;28;20052;-78
2021/04/06 00:28:29;;;;;;;7.15;2.03;;;;;;;-1.50;89.88;100587.16;4995554;28;20042;-77
2021/04/06 00:30:56;;;;;;;10.65;1.73;;;;;;;-1.52;90.17;100587.22;4974195;28;20049;-78
2021/04/06 00:33:27;;;;;;;10.32;2.00;;;;;;;-1.55;90.26;100583.97;5009906;28;20084;-77
2021/04/06 00:35:58;;;;;;;13.52;1.70;;;;;;;-1.35;90.34;100606.19;5004878;28;20052;-77
2021/04/06 00:38:27;;;;;;;7.88;1.38;;;;;;;-1.50;90.43;100600.03;5016745;28;20038;-77
2021/04/06 00:40:58;;;;;;;14.98;2.00;;;;;;;-1.43;89.88;100598.81;5014767;28;20042;-79
2021/04/06 00:43:35;;;;;;;9.25;1.70;;;;;;;-1.46;90.04;100604.13;5015326;28;20157;-77
2021/04/06 00:46:01;;;;;;;11.68;1.75;;;;;;;-1.63;90.39;100605.72;5015264;28;20132;-77
2021/04/06 00:48:29;;;;;;;9.35;1.63;;;;;;;-1.68;90.81;100605.09;5006744;28;20056;-77
2021/04/06 00:51:04;;;;;;;12.75;1.60;;;;;;;-1.77;90.93;100603.81;4994808;28;20042;-78
2021/04/06 00:53:53;;;;;;;8.45;1.55;;;;;;;-1.66;90.59;100600.72;4977862;28;20382;-76
2021/04/06 00:56:21;;;;;;;12.85;1.85;;;;;;;-1.50;90.20;100607.75;4992183;28;20046;-78
2021/04/06 00:58:51;;;;;;;8.00;1.80;;;;;;;-1.44;89.88;100600.56;4996914;28;20050;-78
2021/04/06 01:01:41;;;;;;;4.90;1.42;;;;;;;-1.52;90.21;100604.41;5005760;28;20527;-80
2021/04/06 01:04:14;;;;;;;6.40;1.45;;;;;;;-1.46;89.97;100597.22;5006306;28;20069;-78
2021/04/06 01:06:57;;;;;;;;;;;;;;;-1.46;89.67;100596.41;4999547;28;20593;-79
2021/04/06 01:09:48;;;;;;;3.47;1.20;;;;;;;-1.42;89.50;100606.47;5006453;28;19972;-78
2021/04/06 01:12:16;;;;;;;5.35;1.40;;;;;;;-1.61;90.07;100592.81;5006447;28;20423;-78
2021/04/06 01:14:44;;;;;;;7.65;1.63;;;;;;;-1.68;90.53;100602.53;4982732;28;20084;-78
2021/04/06 01:17:14;;;;;;;7.43;2.15;;;;;;;-1.59;90.48;100601.28;4999881;28;20655;-80
2021/04/06 01:19:40;;;;;;;10.93;1.67;;;;;;;-1.61;90.24;100606.50;4995622;28;20053;-78
2021/04/06 01:22:10;;;;;;;6.85;1.65;;;;;;;-1.64;90.94;100606.66;5009042;28;20404;-79
2021/04/06 01:24:37;;;;;;;4.93;1.70;;;;;;;-1.82;91.61;100616.03;5005333;28;20125;-79
2021/04/06 01:27:05;;;;;;;6.07;1.67;;;;;;;-1.84;91.69;100612.72;4988459;28;20053;-78
2021/04/06 01:29:31;;;;;;;7.57;1.73;;;;;;;-1.93;91.51;100607.16;5012940;28;20476;-78
2021/04/06 01:31:59;;;;;;;11.13;2.40;;;;;;;-1.75;91.50;100614.03;5000237;28;20132;-77
2021/04/06 01:34:25;;;;;;;5.63;1.65;;;;;;;-1.80;91.70;100600.56;5012054;28;20076;-78
2021/04/06 01:36:54;;;;;;;6.63;2.00;;;;;;;-1.80;91.81;100597.97;5018829;28;20037;-80
2021/04/06 01:39:22;;;;;;;5.70;1.58;;;;;;;-1.68;92.00;100588.84;5010561;28;20080;-78
2021/04/06 01:41:54;;;;;;;6.40;1.90;;;;;;;-1.70;92.04;100594.06;4998078;28;20042;-79
2021/04/06 01:44:20;;;;;;;10.07;1.95;;;;;;;-1.64;91.93;100580.94;5002853;28;20041;-79
2021/04/06 01:46:46;;;;;;;9.80;1.88;;;;;;;-1.61;91.55;100582.53;5029101;28;20065;-79
2021/04/06 01:49:15;;;;;;;5.57;1.70;;;;;;;-1.52;91.48;100578.69;5022208;28;20099;-78
2021/04/06 01:51:41;;;;;;;7.28;1.67;;;;;;;-1.50;91.57;100572.56;5018138;28;20053;-77
2021/04/06 01:54:10;;;;;;;6.65;1.60;;;;;;;-1.47;91.06;100575.00;5001940;28;20116;-78
2021/04/06 01:56:45;;;;;;;3.50;1.80;;;;;;;-1.49;91.34;100576.78;4992323;28;20038;-79
2021/04/06 01:59:15;;;;;;;7.95;1.75;;;;;;;-1.45;91.49;100570.59;5020951;28;20049;-79
2021/04/06 02:01:42;;;;;;;7.90;2.05;;;;;;;-1.45;90.89;100572.31;5007336;28;20053;-80
2021/04/06 02:04:08;;;;;;;9.20;1.70;;;;;;;-1.64;91.95;100575.78;4979963;28;20053;-80
2021/04/06 02:06:37;;;;;;;8.50;1.60;;;;;;;-1.64;92.04;100575.78;4983555;28;20062;-79
2021/04/06 02:09:08;;;;;;;12.48;1.77;;;;;;;-1.59;91.90;100575.56;4967582;28;20042;-79
2021/04/06 02:11:36;;;;;;;9.88;1.65;;;;;;;-1.71;92.44;100583.84;4998912;28;20046;-80
2021/04/06 02:14:06;;;;;;;8.63;1.52;;;;;;;-1.57;92.04;100576.31;4984765;28;20042;-79
2021/04/06 02:16:51;;;;;;;7.70;1.80;;;;;;;-1.43;91.90;100578.22;5008088;28;20046;-78
2021/04/06 02:19:26;;;;;;;5.30;1.70;;;;;;;-1.35;91.34;100578.72;5017623;28;20048;-80
2021/04/06 02:22:00;;;;;;;4.68;1.67;;;;;;;-1.33;91.06;100578.63;4999220;28;20042;-78
2021/04/06 02:24:43;;;;;;;8.82;1.48;;;;;;;-1.34;91.34;100572.63;5012489;28;20068;-81
2021/04/06 02:27:29;;;;;;;9.43;2.50;;;;;;;-1.37;91.21;100560.75;5022458;28;20115;-81
2021/04/06 02:30:00;;;;;;;9.15;1.80;;;;;;;-1.29;91.01;100568.09;5015421;28;20366;-78
2021/04/06 02:32:28;;;;;;;6.72;1.85;;;;;;;-1.41;91.68;100577.25;5002180;28;20038;-78
2021/04/06 02:34:59;;;;;;;6.82;1.60;;;;;;;-1.40;91.53;100571.19;4993242;28;20095;-80
2021/04/06 02:37:27;;;;;;;7.05;1.50;;;;;;;-1.43;91.81;100576.50;5037351;28;20052;-77
2021/04/06 02:39:55;;;;;;;8.27;1.67;;;;;;;-1.41;92.11;100577.25;4996842;28;20038;-77
2021/04/06 02:42:26;;;;;;;10.10;2.03;;;;;;;-1.34;91.94;100577.78;5012254;28;20125;-78
2021/04/06 02:45:12;;;;;;;8.18;1.77;;;;;;;-1.18;91.60;100572.75;5004821;28;20049;-77
2021/04/06 02:47:42;;;;;;;14.88;2.05;;;;;;;-1.13;91.84;100582.78;5005327;28;20053;-77
2021/04/06 02:50:11;;;;;;;7.57;1.80;;;;;;;-1.09;91.88;100584.31;5012668;28;20058;-77
2021/04/06 02:52:38;;;;;;;12.25;2.15;;;;;;;-1.09;91.73;100582.59;4998271;28;20045;-77
2021/04/06 02:55:06;;;;;;;9.55;1.98;;;;;;;-1.01;92.11;100588.19;4998824;28;20058;-77
2021/04/06 02:57:31;;;;;;;9.38;2.20;;;;;;;-1.00;92.07;100589.00;5016216;28;20104;-80
2021/04/06 02:59:57;;;;;;;10.15;1.95;;;;;;;-0.88;92.27;100593.56;5009162;28;20053;-78
2021/04/06 03:02:23;;;;;;;11.32;2.60;;;;;;;-0.96;92.51;100593.13;5014368;28;20129;-77
2021/04/06 03:04:49;;;;;;;14.35;2.38;;;;;;;-1.00;93.22;100597.56;5015347;28;20054;-76
2021/04/06 03:07:23;;;;;;;8.27;2.78;;;;;;;-0.87;93.90;100594.38;5007758;28;20101;-78
2021/04/06 03:09:54;;;;;;;7.63;2.70;;;;;;;-1.05;94.66;100591.00;5016592;28;20050;-79
2021/04/06 03:12:21;;;;;;;7.75;2.47;;;;;;;-1.07;94.92;100593.63;5004813;28;20124;-77
2021/04/06 03:14:49;;;;;;;10.52;2.70;;;;;;;-1.04;94.70;100590.06;5009851;28;20049;-77
2021/04/06 03:17:15;;;;;;;13.55;3.50;;;;;;;-0.98;94.53;100589.75;5024165;28;20046;-80
2021/04/06 03:19:42;;;;;;;11.48;4.15;;;;;;;-1.00;94.99;100591.56;5008190;28;20037;-78
2021/04/06 03:22:10;;;;;;;13.52;2.67;;;;;;;-0.75;94.20;100595.50;4982776;28;20084;-79
2021/04/06 03:24:37;;;;;;;14.20;2.92;;;;;;;-0.73;93.96;100591.94;5017186;28;20038;-78
2021/04/06 03:27:04;;;;;;;8.02;2.63;;;;;;;-0.56;93.63;100595.41;5015683;28;20053;-77
2021/04/06 03:29:31;;;;;;;10.27;3.20;;;;;;;-0.55;94.01;100591.91;4984703;28;20151;-79
2021/04/06 03:31:57;;;;;;;14.40;3.65;;;;;;;-0.55;94.19;100595.31;4999294;28;20050;-78
2021/04/06 03:34:29;;;;;;;14.77;3.72;;;;;;;-0.54;94.07;100583.28;4969667;28;20058;-78
2021/04/06 03:36:55;;;;;;;11.02;3.00;;;;;;;-0.65;94.26;100581.25;5011998;28;20049;-79
2021/04/06 03:39:21;;;;;;;7.72;2.60;;;;;;;-0.67;93.99;100576.19;4982020;28;20105;-80
2021/04/06 03:41:47;;;;;;;9.60;2.97;;;;;;;-0.71;94.35;100574.66;5020972;28;20131;-79
2021/04/06 03:44:13;;;;;;;9.02;2.20;;;;;;;-0.71;93.84;100579.00;5010221;28;20049;-80
2021/04/06 03:46:42;;;;;;;8.60;2.47;;;;;;;-0.72;93.98;100578.16;4989458;28;20129;-83
2021/04/06 03:49:20;;;;;;;7.05;2.10;;;;;;;-0.80;93.86;100577.72;5016042;28;20059;-81
2021/04/06 03:51:54;;;;;;;11.15;2.42;;;;;;;-0.95;94.13;100574.16;5030522;28;20042;-82
2021/04/06 03:54:40;;;;;;;9.68;2.50;;;;;;;-0.85;94.27;100570.22;5005098;28;20046;-78
2021/04/06 03:57:46;;;;;;;10.02;2.38;;;;;;;-0.83;93.75;100567.56;5011912;28;20048;-78
2021/04/06 04:00:13;;;;;;;14.02;2.80;;;;;;;-0.80;93.50;100570.00;5001595;28;20049;-78
2021/04/06 04:02:39;;;;;;;13.98;2.78;;;;;;;-0.90;94.50;100567.03;4986733;28;20050;-78
2021/04/06 04:05:05;;;;;;;12.40;2.70;;;;;;;-0.88;93.67;100570.38;5018065;28;20045;-80
2021/04/06 04:07:34;;;;;;;14.57;2.65;;;;;;;-0.79;94.02;100569.91;5013187;28;20076;-78
2021/04/06 04:10:00;;;;;;;13.00;2.65;;;;;;;-0.69;93.55;100570.28;5012988;28;20065;-78
2021/04/06 04:12:26;;;;;;;18.10;3.13;;;;;;;-0.84;93.90;100571.06;4996328;28;20571;-78
2021/04/06 04:14:51;;;;;;;11.85;2.80;;;;;;;-0.99;94.42;100564.94;5021642;28;20042;-79
2021/04/06 04:17:17;;;;;;;10.88;2.50;;;;;;;-1.01;94.61;100565.00;4999140;28;20079;-78
2021/04/06 04:19:43;;;;;;;14.68;2.72;;;;;;;-0.96;94.85;100559.63;5021183;28;20451;-77
2021/04/06 04:22:08;;;;;;;14.93;2.40;;;;;;;-0.88;94.59;100566.97;4997660;28;20042;-80
2021/04/06 04:24:34;;;;;;;10.82;2.33;;;;;;;-1.05;94.71;100566.06;4995929;28;20552;-78
2021/04/06 04:26:59;;;;;;;10.02;2.33;;;;;;;-1.10;95.03;100568.03;5021272;28;20095;-78
2021/04/06 04:29:25;;;;;;;14.85;2.50;;;;;;;-1.09;94.94;100569.72;5018055;28;20099;-78
2021/04/06 04:31:51;;;;;;;13.80;2.30;;;;;;;-1.09;95.12;100566.28;5017082;28;20056;-78
2021/04/06 04:34:17;;;;;;;12.75;2.67;;;;;;;-1.08;95.20;100568.78;4990907;28;20057;-78
2021/04/06 04:36:43;;;;;;;14.15;2.72;;;;;;;-1.08;95.43;100571.38;5015177;28;20037;-79
2021/04/06 04:39:09;;;;;;;13.35;2.67;;;;;;;-0.99;95.44;100572.66;5008278;28;20065;-78
2021/04/06 04:41:35;;;;;;;15.73;2.60;;;;;;;-1.02;95.29;100575.38;4993342;28;20115;-78
2021/04/06 04:44:00;;;;;;;14.68;2.25;;;;;;;-0.93;95.30;100567.19;5010248;28;20108;-79
2021/04/06 04:46:28;;;;;;;13.65;2.25;;;;;;;-1.06;94.94;100579.84;5007110;28;20104;-78
2021/04/06 04:48:55;;;;;;;10.23;2.35;;;;;;;-1.09;94.73;100566.28;5003359;28;20045;-81
2021/04/06 04:51:21;;;;;;;17.70;2.72;;;;;;;-1.09;95.42;100569.72;5010101;28;20496;-79
2021/04/06 04:53:46;;;;;;;20.60;2.50;;;;;;;-1.02;95.52;100573.66;4984192;28;20041;-79
2021/04/06 04:56:12;;;;;;;19.23;2.38;;;;;;;-0.77;94.62;100571.56;4978337;28;20051;-78
2021/04/06 04:58:37;;;;;;;19.58;2.95;;;;;;;-0.88;94.44;100572.94;4991869;28;20060;-79
2021/04/06 05:01:03;;;;;;;13.70;2.58;;;;;;;-0.83;94.18;100583.88;5024155;28;20073;-78
2021/04/06 05:03:28;;;;;;;16.88;3.00;;;;;;;-0.83;93.89;100577.84;5011611;28;20041;-78
2021/04/06 05:05:54;;;;;;;10.90;2.30;;;;;;;-0.78;93.94;100578.47;4994036;28;20123;-79
2021/04/06 05:08:19;;;;;;;10.77;2.42;;;;;;;-0.67;93.77;100583.91;5015759;28;20041;-78
2021/04/06 05:10:45;;;;;;;24.27;3.50;;;;;;;-0.66;92.65;100584.72;4977339;28;20041;-79
2021/04/06 05:13:10;;;;;;;19.48;2.80;;;;;;;-0.74;93.14;100585.13;4977272;28;20065;-78
2021/04/06 05:15:36;;;;;;;17.65;2.92;;;;;;;-0.80;93.27;100581.09;4995248;28;20104;-78
2021/04/06 05:18:01;;;;;;;17.27;2.58;;;;;;;-0.89;93.39;100579.00;4997804;28;20052;-77
2021/04/06 05:20:27;;;;;;;14.73;2.70;;;;;;;-0.88;93.28;100585.00;5023013;28;20060;-78
2021/04/06 05:22:52;;;;;;;17.20;2.63;;;;;;;-0.90;93.59;100582.50;5028233;28;20060;-78
2021/04/06 05:25:18;;;;;;;19.55;3.17;;;;;;;-0.88;93.57;100577.28;5029923;28;20049;-79
2021/04/06 05:27:44;;;;;;;15.73;2.95;;;;;;;-0.92;93.70;100584.31;5008030;28;20049;-78
2021/04/06 05:30:10;;;;;;;24.35;3.25;;;;;;;-0.76;93.23;100589.53;5018387;28;20128;-77
2021/04/06 05:32:36;;;;;;;16.13;2.85;;;;;;;-0.85;93.05;100583.09;5009310;28;20054;-79
2021/04/06 05:35:03;;;;;;;23.13;3.22;;;;;;;-0.81;93.65;100586.34;5027496;28;20060;-78
2021/04/06 05:37:28;;;;;;;14.02;2.60;;;;;;;-0.77;93.49;100582.72;4992796;28;20042;-76
2021/04/06 05:39:54;;;;;;;25.38;3.00;;;;;;;-0.57;92.63;100584.25;5016734;28;20045;-79
2021/04/06 05:42:20;;;;;;;11.93;2.65;;;;;;;-0.50;91.67;100587.38;5011634;28;20049;-78
2021/04/06 05:44:46;;;;;;;14.98;2.70;;;;;;;-0.41;91.12;100579.97;4995884;28;20061;-77
2021/04/06 05:47:25;;;;;;;19.15;2.63;;;;;;;-0.25;89.20;100581.75;5023900;28;20124;-77
2021/04/06 05:49:51;;;;;;;17.08;2.78;;;;;;;-0.10;89.18;100593.00;5023880;28;20048;-80
2021/04/06 05:52:17;;;;;;;18.13;3.38;;;;;;;0.04;87.91;100593.09;5013330;28;20049;-78
2021/04/06 05:54:42;;;;;;;21.23;2.65;;;;;;;0.10;88.55;100595.34;4997392;28;20076;-78
2021/04/06 05:57:08;;;;;;;13.90;3.03;;;;;;;0.28;87.95;100606.41;4997986;28;20049;-78
2021/04/06 05:59:34;;;;;;;18.88;2.65;;;;;;;0.46;87.36;100604.56;4996759;28;20073;-77
2021/04/06 06:01:59;;;;;;;19.42;2.17;;;;;;;0.58;86.46;100603.91;4987239;28;20048;-78
2021/04/06 06:04:25;;;;;;;15.65;2.85;;;;;;;0.52;87.07;100619.69;4986715;28;20038;-76
2021/04/06 06:06:52;;;;;;;10.15;1.85;;;;;;;0.68;86.27;100613.69;4981495;28;20056;-78
2021/04/06 06:09:32;;;;;;;17.42;2.60;;;;;;;0.74;86.41;100610.78;5019611;28;20054;-78
2021/04/06 06:12:00;;;;;;;17.13;2.78;;;;;;;0.96;85.59;100595.72;5013969;28;20042;-77
2021/04/06 06:14:33;;;;;;;20.90;2.40;;;;;;;1.16;84.87;100602.31;4987695;28;20042;-80
2021/04/06 06:17:26;;;;;;;20.15;2.60;;;;;;;1.09;85.10;100592.41;5014590;28;20038;-78
2021/04/06 06:19:57;;;;;;;12.23;2.83;;;;;;;0.93;85.26;100597.66;5012350;28;20080;-79
2021/04/06 06:22:31;;;;;;;17.10;2.22;;;;;;;0.67;86.06;100589.63;4990054;28;20289;-79
2021/04/06 06:25:09;;;;;;;13.70;2.20;;;;;;;0.60;86.96;100590.88;5011358;28;20088;-77
2021/04/06 06:27:47;;;;;;;18.42;2.55;;;;;;;0.45;87.44;100594.31;5017807;28;20076;-79
2021/04/06 06:30:35;;;;;;;15.32;2.50;;;;;;;0.64;87.22;100600.16;4982786;28;20423;-77
2021/04/06 06:33:25;;;;;;;19.42;2.42;;;;;;;0.71;87.60;100621.28;4995552;28;20420;-78
2021/04/06 06:35:53;;;;;;;11.27;2.28;;;;;;;0.90;86.39;100621.88;4996401;28;20523;-78
2021/04/06 06:38:23;;;;;;;16.60;2.17;;;;;;;0.73;87.49;100625.41;4963379;28;20050;-77
2021/04/06 06:40:54;;;;;;;16.33;2.38;;;;;;;0.29;89.80;100636.47;4997113;28;20057;-79
2021/04/06 06:43:22;;;;;;;16.33;2.20;;;;;;;0.10;90.87;100631.47;5021166;28;20156;-80
2021/04/06 06:45:49;;;;;;;16.45;2.60;;;;;;;0.06;91.92;100635.13;4997462;28;20049;-80
2021/04/06 06:48:26;;;;;;;21.67;2.80;;;;;;;-0.10;91.95;100631.69;5016239;28;20046;-78
2021/04/06 06:50:52;;;;;;;15.10;2.65;;;;;;;-0.23;92.88;100627.19;5018272;28;20045;-79
2021/04/06 06:53:38;;;;;;;19.85;2.97;;;;;;;-0.19;92.21;100627.81;4983698;28;20052;-77
2021/04/06 06:56:06;;;;;;;20.88;2.50;;;;;;;-0.23;93.14;100628.91;5013121;28;20089;-79
2021/04/06 06:58:39;;;;;;;26.15;2.47;;;;;;;-0.03;92.61;100622.72;5028531;28;20053;-80
2021/04/06 07:01:06;;;;;;;20.02;2.97;;;;;;;0.38;91.93;100615.31;5007820;28;20042;-81
2021/04/06 07:03:32;;;;;;;18.95;2.75;;;;;;;0.52;91.81;100614.53;5017244;28;20037;-78
2021/04/06 07:06:21;;;;;;;14.40;2.78;;;;;;;0.89;88.78;100609.09;5024324;28;20046;-78
2021/04/06 07:08:47;;;;;;;25.27;2.72;;;;;;;1.07;88.09;100602.84;5006865;28;20046;-80
2021/04/06 07:11:15;;;;;;;21.90;3.50;;;;;;;1.20;86.09;100595.19;5010641;28;20180;-78
2021/04/06 07:13:44;;;;;;;22.00;3.15;;;;;;;1.46;86.01;100595.44;5010391;28;20156;-80
2021/04/06 07:16:17;;;;;;;14.93;2.60;;;;;;;1.94;83.05;100606.28;5007732;28;20064;-79
2021/04/06 07:18:43;;;;;;;21.52;2.50;;;;;;;2.08;85.34;100606.28;5006048;28;20049;-78
2021/04/06 07:21:10;;;;;;;22.40;2.53;;;;;;;1.91;82.77;100607.31;5008721;28;20046;-79
2021/04/06 07:23:55;;;;;;;20.17;2.60;;;;;;;1.83;82.25;100613.88;4980617;28;20435;-76
2021/04/06 07:26:21;;;;;;;14.65;2.20;;;;;;;1.59;86.17;100614.44;5012681;28;20079;-78
2021/04/06 07:28:47;;;;;;;19.40;3.05;;;;;;;1.42;84.59;100602.53;5008213;28;20116;-78
2021/04/06 07:31:15;;;;;;;17.65;2.47;;;;;;;1.02;86.44;100622.94;4994677;28;20046;-77
2021/04/06 07:33:41;;;;;;;19.67;2.38;;;;;;;0.56;88.62;100622.94;4997941;28;20052;-78
2021/04/06 07:36:13;;;;;;;15.38;2.42;;;;;;;0.29;89.75;100631.28;5016366;28;20054;-77
2021/04/06 07:38:54;;;;;;;19.70;2.50;;;;;;;0.19;91.03;100619.81;4991657;28;20038;-79
2021/04/06 07:41:22;;;;;;;21.27;3.13;;;;;;;0.17;91.16;100622.47;5016145;28;20321;-77
2021/04/06 07:43:53;;;;;;;17.80;2.80;;;;;;;0.30;90.80;100619.22;5015976;28;20512;-79
2021/04/06 07:46:33;;;;;;;18.20;3.03;;;;;;;0.30;91.16;100619.22;5025731;28;20054;-77
2021/04/06 07:49:12;;;;;;;13.63;2.58;;;;;;;0.37;91.32;100607.66;5030274;28;20057;-81
2021/04/06 07:51:41;;;;;;;13.05;2.60;;;;;;;0.57;91.97;100606.56;5016839;28;20131;-81
2021/04/06 07:54:09;;;;;;;15.18;3.25;;;;;;;0.81;92.69;100600.91;5011733;28;20042;-78
2021/04/06 07:56:53;;;;;;;19.17;3.10;;;;;;;1.07;92.05;100600.25;5015631;28;20113;-79
2021/04/06 07:59:18;;;;;;;24.83;3.17;;;;;;;1.27;91.50;100599.09;4975728;28;20412;-79
2021/04/06 08:01:51;;;;;;;18.45;2.60;;;;;;;1.49;91.29;100590.09;5013701;28;20049;-79
2021/04/06 08:04:18;;;;;;;15.68;3.05;;;;;;;1.85;90.46;100596.53;5005217;28;20041;-79
2021/04/06 08:06:54;;;;;;;21.20;3.00;;;;;;;2.01;88.91;100594.66;5018187;28;20061;-78
2021/04/06 08:09:33;;;;;;;14.70;2.40;;;;;;;2.16;88.20;100597.22;5009590;28;20041;-79
2021/04/06 08:12:19;;;;;;;15.38;3.75;;;;;;;2.41;87.49;100592.16;4995133;28;20049;-78
2021/04/06 08:15:00;;;;;;;17.33;2.63;;;;;;;2.63;86.08;100596.78;5011820;28;20053;-77
2021/04/06 08:17:25;;;;;;;15.48;2.40;;;;;;;2.68;85.18;100580.97;5009948;28;20055;-78
2021/04/06 08:19:58;;;;;;;13.60;2.05;;;;;;;2.78;83.68;100583.78;5011477;28;20038;-79
2021/04/06 08:22:43;;;;;;;15.75;3.00;;;;;;;3.03;83.10;100573.47;5000242;28;20049;-79
2021/04/06 08:25:15;;;;;;;21.15;3.50;;;;;;;3.57;82.68;100569.81;5016055;28;20045;-78
2021/04/06 08:27:42;;;;;;;14.15;2.20;;;;;;;3.62;80.00;100570.34;5011883;28;20041;-78
2021/04/06 08:30:18;;;;;;;17.00;2.58;;;;;;;3.51;80.88;100575.44;4993278;28;20054;-78
2021/04/06 08:32:56;;;;;;;13.68;2.13;;;;;;;3.61;77.81;100573.88;4998966;28;20108;-77
2021/04/06 08:35:53;;;;;;;11.60;2.78;;;;;;;3.81;79.68;100569.91;4996792;28;20407;-76
2021/04/06 08:40:47;;;;;;;13.88;2.13;;;;;;;3.68;73.93;100576.88;5020810;28;20045;-77
2021/04/06 08:43:16;;;;;;;15.52;2.00;;;;;;;3.17;77.40;100574.31;5005641;28;20033;-77
2021/04/06 08:45:58;;;;;;;14.55;2.20;;;;;;;2.84;78.05;100598.91;5013593;28;20041;-77
2021/04/06 08:48:46;;;;;;;12.30;1.83;;;;;;;2.01;83.53;100602.41;5015418;28;20384;-79
2021/04/06 08:51:25;;;;;;;10.18;1.70;;;;;;;1.38;84.56;100613.97;5003394;28;20069;-79
2021/04/06 08:54:09;;;;;;;16.17;1.92;;;;;;;0.99;86.33;100614.53;5027340;28;20061;-79
2021/04/06 08:56:43;;;;;;;7.70;1.08;;;;;;;0.67;88.19;100622.34;4989399;28;20042;-78
2021/04/06 08:59:19;;;;;;;6.82;1.40;;;;;;;0.49;89.37;100611.28;5010727;28;20042;-78
2021/04/06 09:01:53;;;;;;;8.43;1.40;;;;;;;0.43;90.36;100606.47;4995479;28;20111;-78
2021/04/06 09:04:21;;;;;;;9.00;1.30;;;;;;;0.38;90.77;100604.16;4986817;28;20037;-77
2021/04/06 09:06:47;;;;;;;9.57;1.98;;;;;;;0.32;91.44;100599.31;5014068;28;20058;-77
2021/04/06 09:09:16;;;;;;;6.47;1.52;;;;;;;0.54;90.23;100599.81;5016020;28;20056;-79
2021/04/06 09:11:43;;;;;;;8.32;1.98;;;;;;;0.77;90.18;100603.69;5008498;28;20046;-79
2021/04/06 09:14:09;;;;;;;10.15;2.80;;;;;;;0.92;90.57;100595.97;5008830;28;20076;-77
2021/04/06 09:16:36;;;;;;;9.35;1.88;;;;;;;0.87;89.57;100610.91;4979972;28;20037;-77
2021/04/06 09:19:06;;;;;;;15.50;1.88;;;;;;;0.52;90.81;100600.81;5023006;28;20136;-77
2021/04/06 09:21:33;;;;;;;13.85;1.83;;;;;;;0.33;91.66;100616.47;5013388;28;20038;-77
2021/04/06 09:24:02;;;;;;;12.65;1.98;;;;;;;0.20;91.68;100613.72;5016906;28;20045;-79
2021/04/06 09:26:28;;;;;;;7.93;1.90;;;;;;;0.16;91.44;100618.22;5031983;28;20041;-79
2021/04/06 09:29:04;;;;;;;10.50;1.77;;;;;;;-0.05;92.90;100614.22;4983966;28;20057;-79
2021/04/06 09:31:31;;;;;;;13.73;1.75;;;;;;;-0.14;93.18;100607.81;4996324;28;20054;-79
2021/04/06 09:34:19;;;;;;;9.85;2.05;;;;;;;-0.40;94.05;100614.31;5015713;28;20053;-79
2021/04/06 09:36:55;;;;;;;7.10;1.30;;;;;;;-0.44;94.99;100599.94;4996619;28;20041;-80
2021/04/06 09:39:21;;;;;;;2.75;1.05;;;;;;;-0.32;94.47;100599.31;4991771;28;20443;-79
2021/04/06 09:41:47;;;;;;;5.28;1.38;;;;;;;-0.09;94.11;100607.56;5002755;28;20121;-80
2021/04/06 09:44:19;;;;;;;5.25;1.42;;;;;;;0.05;93.72;100587.00;4999490;28;20471;-79
2021/04/06 09:46:51;;;;;;;8.80;2.13;;;;;;;0.27;93.02;100584.09;4999676;28;20045;-79
2021/04/06 09:49:17;;;;;;;7.57;2.10;;;;;;;0.25;93.11;100585.94;5007559;28;20064;-79
2021/04/06 09:51:48;;;;;;;11.40;2.55;;;;;;;0.31;92.86;100602.84;4983503;28;20038;-80
2021/04/06 09:54:21;;;;;;;17.50;2.53;;;;;;;0.03;93.66;100601.75;4982962;28;20050;-80
2021/04/06 09:56:48;;;;;;;16.38;3.22;;;;;;;0.04;93.42;100606.00;4995496;28;20049;-79
2021/04/06 09:59:14;;;;;;;7.20;2.60;;;;;;;0.16;93.41;100599.34;4996418;28;20096;-79
2021/04/06 10:01:40;;;;;;;12.77;2.83;;;;;;;0.39;93.04;100592.91;5027507;28;20665;-79
2021/04/06 10:04:06;;;;;;;9.20;3.17;;;;;;;0.71;92.13;100591.09;5014640;28;20061;-79
2021/04/06 10:06:42;;;;;;;10.02;2.70;;;;;;;1.17;91.21;100590.25;4978138;28;20048;-79
2021/04/06 10:09:23;;;;;;;9.48;2.53;;;;;;;2.30;88.67;100598.03;5002173;28;20041;-82
2021/04/06 10:11:50;;;;;;;10.23;2.60;;;;;;;2.20;87.55;100588.34;4999394;28;20053;-80
2021/04/06 10:14:16;;;;;;;9.55;1.88;;;;;;;1.99;87.29;100590.50;5016268;28;20049;-81
2021/04/06 10:16:42;;;;;;;8.32;1.88;;;;;;;1.28;88.95;100580.09;5023285;28;20512;-81
2021/04/06 10:19:20;;;;;;;10.02;1.40;;;;;;;0.92;89.66;100586.50;5007813;28;20550;-80
2021/04/06 10:22:00;;;;;;;8.73;1.70;;;;;;;0.61;90.49;100582.22;5015581;28;20049;-79
2021/04/06 10:24:29;;;;;;;9.23;1.92;;;;;;;0.65;90.22;100582.91;5007571;28;20045;-79
2021/04/06 10:27:28;;;;;;;8.93;1.90;;;;;;;0.87;90.48;100577.34;5018958;28;20045;-79
2021/04/06 10:30:01;;;;;;;8.20;1.60;;;;;;;1.06;88.70;100577.94;4945947;28;20074;-78
2021/04/06 10:32:31;;;;;;;9.65;1.50;;;;;;;1.23;89.48;100574.38;5004171;28;20419;-77
2021/04/06 10:35:05;;;;;;;8.25;1.35;;;;;;;1.20;88.62;100576.28;4997918;28;20520;-76
2021/04/06 10:37:46;;;;;;;8.80;1.50;;;;;;;1.13;88.47;100568.06;4999552;28;20056;-77
2021/04/06 10:40:29;;;;;;;7.25;1.77;;;;;;;1.13;89.32;100563.75;5017034;28;20045;-77
2021/04/06 10:43:02;;;;;;;;;;;;;;;1.00;89.27;100557.63;5003327;28;20055;-78
2021/04/06 10:45:31;;;;;;;10.57;2.25;;;;;;;1.05;89.58;100547.84;5013223;28;19925;-77
2021/04/06 10:48:10;;;;;;;12.02;2.17;;;;;;;1.33;89.72;100549.63;5007278;28;20437;-77
2021/04/06 10:50:39;;;;;;;15.55;3.00;;;;;;;1.73;89.05;100536.88;5010800;28;20088;-79
2021/04/06 10:53:21;;;;;;;11.57;2.40;;;;;;;2.27;87.21;100543.03;5015178;28;20049;-77
2021/04/06 10:55:55;;;;;;;12.27;2.70;;;;;;;2.51;86.17;100549.22;5001403;28;20042;-78
2021/04/06 10:58:28;;;;;;;17.05;2.83;;;;;;;2.69;84.84;100544.63;5021066;28;20068;-77
2021/04/06 11:00:59;;;;;;;15.70;3.03;;;;;;;2.80;85.02;100540.47;5022907;28;20041;-79
2021/04/06 11:03:25;;;;;;;11.05;2.60;;;;;;;3.43;83.76;100544.03;5012251;28;20116;-77
2021/04/06 11:05:50;;;;;;;12.82;2.05;;;;;;;3.22;80.30;100539.38;5001215;28;20038;-78
2021/04/06 11:08:20;;;;;;;9.35;1.95;;;;;;;3.04;81.38;100544.03;5028160;28;20134;-80
2021/04/06 11:10:48;;;;;;;8.88;2.58;;;;;;;2.61;82.81;100544.25;5027084;28;20053;-78
2021/04/06 11:13:14;;;;;;;13.25;2.65;;;;;;;2.01;88.05;100568.78;5019847;28;20598;-77
2021/04/06 11:15:41;;;;;;;15.15;2.38;;;;;;;2.00;88.39;100582.66;5017189;28;20037;-75
2021/04/06 11:18:08;;;;;;;7.35;1.63;;;;;;;2.35;84.30;100574.41;4998757;28;20046;-78
2021/04/06 11:20:34;;;;;;;6.28;1.90;;;;;;;2.78;85.20;100548.34;5002815;28;20097;-79
2021/04/06 11:22:59;;;;;;;9.02;1.33;;;;;;;3.26;81.81;100543.41;4997825;28;20554;-82
2021/04/06 11:25:25;;;;;;;6.40;1.40;;;;;;;3.78;80.87;100538.16;5011491;28;20459;-79
2021/04/06 11:28:06;;;;;;;5.57;1.27;;;;;;;3.64;81.48;100546.91;4994795;28;20072;-78
2021/04/06 11:30:32;;;;;;;7.45;1.50;;;;;;;3.79;79.43;100542.41;5008912;28;20100;-77
2021/04/06 11:33:00;;;;;;;8.57;1.40;;;;;;;3.52;79.81;100535.59;5010666;28;20591;-78
2021/04/06 11:35:26;;;;;;;8.60;1.00;;;;;;;3.39;80.07;100535.63;5011254;28;20424;-76
2021/04/06 11:37:51;;;;;;;8.52;1.20;;;;;;;3.07;80.95;100536.06;4989968;28;20042;-77
2021/04/06 11:40:17;;;;;;;9.20;1.55;;;;;;;2.79;83.27;100525.84;5000068;28;20708;-76
2021/04/06 11:42:42;;;;;;;5.90;1.30;;;;;;;2.44;81.53;100529.00;4957787;28;20448;-80